createdAt,value
2018-07-24T00:02:08.453Z,13.17
2018-07-24T00:04:37.168Z,13.80
2018-07-24T00:07:07.239Z,13.40
2018-07-24T00:09:35.888Z,11.70
2018-07-24T00:12:04.544Z,12.37
2018-07-24T00:14:33.182Z,13.77
2018-07-24T00:17:01.860Z,13.40
2018-07-24T00:19:30.689Z,15.07
2018-07-24T00:21:59.459Z,14.60
2018-07-24T00:24:28.277Z,13.87
2018-07-24T00:26:56.959Z,15.30
2018-07-24T00:29:25.558Z,13.80
2018-07-24T00:31:54.363Z,13.63
2018-07-24T00:34:23.032Z,13.07
2018-07-24T00:36:52.091Z,14.17
2018-07-24T00:39:20.759Z,12.70
2018-07-24T00:41:49.460Z,12.13
2018-07-24T00:44:18.291Z,13.43
2018-07-24T00:46:46.874Z,12.73
2018-07-24T00:49:18.435Z,14.43
2018-07-24T00:51:47.152Z,13.63
2018-07-24T00:54:15.767Z,12.53
2018-07-24T00:56:44.389Z,12.33
2018-07-24T00:59:13.216Z,14.17
2018-07-24T01:01:41.836Z,14.07
2018-07-24T01:04:12.133Z,12.83
2018-07-24T01:06:41.178Z,14.20
2018-07-24T01:09:11.647Z,12.70
2018-07-24T01:11:40.612Z,14.40
2018-07-24T01:14:10.386Z,14.33
2018-07-24T01:16:38.960Z,13.77
2018-07-24T01:19:07.544Z,13.70
2018-07-24T01:21:36.297Z,15.37
2018-07-24T01:24:04.957Z,14.93
2018-07-24T01:26:33.578Z,13.87
2018-07-24T01:29:02.185Z,14.40
2018-07-24T01:31:30.729Z,13.60
2018-07-24T01:33:59.328Z,14.30
2018-07-24T01:36:27.931Z,14.50
2018-07-24T01:38:56.625Z,14.83
2018-07-24T01:41:26.381Z,14.20
2018-07-24T01:43:54.980Z,13.57
2018-07-24T01:46:23.535Z,15.27
2018-07-24T01:48:52.206Z,15.90
2018-07-24T01:51:21.062Z,14.87
2018-07-24T01:53:49.671Z,16.27
2018-07-24T01:56:18.305Z,14.30
2018-07-24T01:58:46.917Z,14.40
2018-07-24T02:01:15.473Z,15.90
2018-07-24T02:03:44.280Z,14.83
2018-07-24T02:06:13.649Z,15.93
2018-07-24T02:08:43.488Z,17.40
2018-07-24T02:11:12.263Z,19.70
2018-07-24T02:13:40.836Z,17.23
2018-07-24T02:16:09.472Z,18.03
2018-07-24T02:18:38.064Z,16.27
2018-07-24T02:21:06.891Z,15.10
2018-07-24T02:23:35.488Z,15.17
2018-07-24T02:26:04.063Z,14.37
2018-07-24T02:28:32.607Z,14.20
2018-07-24T02:31:01.209Z,15.50
2018-07-24T02:33:29.824Z,15.73
2018-07-24T02:35:58.433Z,14.50
2018-07-24T02:38:27.275Z,14.23
2018-07-24T02:40:55.853Z,14.27
2018-07-24T02:43:24.444Z,13.63
2018-07-24T02:45:53.328Z,14.40
2018-07-24T02:48:21.902Z,14.50
2018-07-24T02:50:52.870Z,14.50
2018-07-24T02:53:21.546Z,14.80
2018-07-24T02:55:50.169Z,15.83
2018-07-24T02:58:18.818Z,14.87
2018-07-24T03:00:47.392Z,15.30
2018-07-24T03:03:15.959Z,14.63
2018-07-24T03:05:44.552Z,16.43
2018-07-24T03:08:13.152Z,14.63
2018-07-24T03:10:41.716Z,14.33
2018-07-24T03:13:10.514Z,15.10
2018-07-24T03:15:39.129Z,14.80
2018-07-24T03:18:07.713Z,17.30
2018-07-24T03:20:36.269Z,16.60
2018-07-24T03:23:04.873Z,19.90
2018-07-24T03:25:33.616Z,18.20
2018-07-24T03:28:02.249Z,15.47
2018-07-24T03:30:30.848Z,18.80
2018-07-24T03:32:59.406Z,18.13
2018-07-24T03:35:28.092Z,18.13
2018-07-24T03:37:56.672Z,16.77
2018-07-24T03:40:25.356Z,16.90
2018-07-24T03:42:54.493Z,18.03
2018-07-24T03:45:23.271Z,16.20
2018-07-24T03:47:51.840Z,14.37
2018-07-24T03:50:20.447Z,16.73
2018-07-24T03:52:49.029Z,14.93
2018-07-24T03:55:17.585Z,14.90
2018-07-24T03:57:46.475Z,16.40
2018-07-24T04:00:15.056Z,17.20
2018-07-24T04:02:43.613Z,14.63
2018-07-24T04:05:12.793Z,16.40
2018-07-24T04:07:42.525Z,18.97
2018-07-24T04:10:11.116Z,18.60
2018-07-24T04:12:39.680Z,20.57
2018-07-24T04:15:08.277Z,20.83
2018-07-24T04:17:37.049Z,20.53
2018-07-24T04:20:05.610Z,19.83
2018-07-24T04:22:34.194Z,18.77
2018-07-24T04:25:02.796Z,17.73
2018-07-24T04:27:31.400Z,19.23
2018-07-24T04:29:59.987Z,20.20
2018-07-24T04:32:28.576Z,19.03
2018-07-24T04:34:57.124Z,18.60
2018-07-24T04:37:25.711Z,19.40
2018-07-24T04:39:54.350Z,18.53
2018-07-24T04:42:23.005Z,19.40
2018-07-24T04:44:51.620Z,18.67
2018-07-24T04:47:21.117Z,17.57
2018-07-24T04:49:49.802Z,17.90
2018-07-24T04:52:18.506Z,18.17
2018-07-24T04:54:47.200Z,17.37
2018-07-24T04:57:15.810Z,16.87
2018-07-24T04:59:44.404Z,17.40
2018-07-24T05:02:13.256Z,16.33
2018-07-24T05:04:41.804Z,14.57
2018-07-24T05:07:10.616Z,14.80
2018-07-24T05:09:39.210Z,14.83
2018-07-24T05:12:07.795Z,13.70
2018-07-24T05:14:36.465Z,14.13
2018-07-24T05:17:05.064Z,17.93
2018-07-24T05:19:33.619Z,15.17
2018-07-24T05:22:02.225Z,15.50
2018-07-24T05:24:30.775Z,15.03
2018-07-24T05:26:59.509Z,15.50
2018-07-24T05:29:28.152Z,15.60
2018-07-24T05:31:56.724Z,15.10
2018-07-24T05:34:25.396Z,15.60
2018-07-24T05:36:53.985Z,15.07
2018-07-24T05:39:23.601Z,14.40
2018-07-24T05:41:52.204Z,16.03
2018-07-24T05:44:20.844Z,16.13
2018-07-24T05:46:49.416Z,16.87
2018-07-24T05:49:18.075Z,18.53
2018-07-24T05:51:46.673Z,17.23
2018-07-24T05:54:15.331Z,15.37
2018-07-24T05:56:43.938Z,15.97
2018-07-24T05:59:12.674Z,15.70
2018-07-24T06:01:41.362Z,17.30
2018-07-24T06:04:10.105Z,15.90
2018-07-24T06:06:39.425Z,16.77
2018-07-24T06:09:09.370Z,16.40
2018-07-24T06:11:38.127Z,15.73
2018-07-24T06:14:06.696Z,15.47
2018-07-24T06:16:35.288Z,16.33
2018-07-24T06:19:03.836Z,16.70
2018-07-24T06:21:32.775Z,17.03
2018-07-24T06:24:01.328Z,16.30
2018-07-24T06:26:30.077Z,15.33
2018-07-24T06:28:58.668Z,14.27
2018-07-24T06:31:27.415Z,15.33
2018-07-24T06:33:56.092Z,15.87
2018-07-24T06:36:24.748Z,16.20
2018-07-24T06:38:53.405Z,14.90
2018-07-24T06:41:22.008Z,15.30
2018-07-24T06:43:50.638Z,18.30
2018-07-24T06:46:19.292Z,15.60
2018-07-24T06:48:47.977Z,14.57
2018-07-24T06:51:16.697Z,14.00
2018-07-24T06:53:45.272Z,15.80
2018-07-24T06:56:13.877Z,16.13
2018-07-24T06:58:42.490Z,15.43
2018-07-24T07:01:11.092Z,16.30
2018-07-24T07:03:39.784Z,15.60
2018-07-24T07:06:08.561Z,15.50
2018-07-24T07:08:37.172Z,15.30
2018-07-24T07:11:05.837Z,13.90
2018-07-24T07:13:34.531Z,16.47
2018-07-24T07:16:03.066Z,17.30
2018-07-24T07:18:31.721Z,14.80
2018-07-24T07:21:00.308Z,15.87
2018-07-24T07:23:28.998Z,14.40
2018-07-24T07:25:57.778Z,15.37
2018-07-24T07:28:27.248Z,14.50
2018-07-24T07:30:55.832Z,15.50
2018-07-24T07:33:24.579Z,14.23
2018-07-24T07:35:53.126Z,14.50
2018-07-24T07:38:21.925Z,13.87
2018-07-24T07:40:50.535Z,14.37
2018-07-24T07:43:19.111Z,14.10
2018-07-24T07:45:47.705Z,14.13
2018-07-24T07:48:16.268Z,13.63
2018-07-24T07:50:45.152Z,14.33
2018-07-24T07:53:13.777Z,13.83
2018-07-24T07:55:42.477Z,13.83
2018-07-24T07:58:11.061Z,14.23
2018-07-24T08:00:39.695Z,14.07
2018-07-24T08:03:08.574Z,14.50
2018-07-24T08:05:40.555Z,12.60
2018-07-24T08:08:09.275Z,12.53
2018-07-24T08:10:38.632Z,13.30
2018-07-24T08:13:07.383Z,13.30
2018-07-24T08:15:36.119Z,12.87
2018-07-24T08:18:04.691Z,12.10
2018-07-24T08:20:33.505Z,12.80
2018-07-24T08:23:02.068Z,12.17
2018-07-24T08:25:30.704Z,11.10
2018-07-24T08:27:59.442Z,11.70
2018-07-24T08:30:28.082Z,10.30
2018-07-24T08:32:56.754Z,10.93
2018-07-24T08:35:25.327Z,11.80
2018-07-24T08:37:53.917Z,13.83
2018-07-24T08:40:22.548Z,12.90
2018-07-24T08:42:51.148Z,11.40
2018-07-24T08:45:19.850Z,11.53
2018-07-24T08:47:48.451Z,13.20
2018-07-24T08:50:17.047Z,12.10
2018-07-24T08:52:45.788Z,12.60
2018-07-24T08:55:15.876Z,10.47
2018-07-24T08:57:44.273Z,11.33
2018-07-24T09:00:12.813Z,11.03
2018-07-24T09:02:41.389Z,9.53
2018-07-24T09:05:10.258Z,11.17
2018-07-24T09:07:38.837Z,9.80
2018-07-24T09:10:07.473Z,11.07
2018-07-24T09:12:36.180Z,9.40
2018-07-24T09:15:05.064Z,8.70
2018-07-24T09:17:33.659Z,8.17
2018-07-24T09:20:02.285Z,8.60
2018-07-24T09:22:30.896Z,9.90
2018-07-24T09:24:59.492Z,8.83
2018-07-24T09:27:28.106Z,15.47
2018-07-24T09:29:56.733Z,9.07
2018-07-24T09:32:25.305Z,6.40
2018-07-24T09:34:53.833Z,5.93
2018-07-24T09:37:22.476Z,5.90
2018-07-24T09:39:51.037Z,6.30
2018-07-24T09:42:19.743Z,6.73
2018-07-24T09:44:48.317Z,6.00
2018-07-24T09:47:17.088Z,6.60
2018-07-24T09:49:45.645Z,5.83
2018-07-24T09:52:14.272Z,6.83
2018-07-24T09:54:42.908Z,6.20
2018-07-24T09:57:11.705Z,6.03
2018-07-24T09:59:40.267Z,5.70
2018-07-24T10:02:08.858Z,5.90
2018-07-24T10:04:37.444Z,5.87
2018-07-24T10:07:06.078Z,6.87
2018-07-24T10:09:34.680Z,6.63
2018-07-24T10:12:06.673Z,7.20
2018-07-24T10:14:35.281Z,5.50
2018-07-24T10:17:04.794Z,5.70
2018-07-24T10:19:33.355Z,6.17
2018-07-24T10:22:01.938Z,7.23
2018-07-24T10:24:30.940Z,6.43
2018-07-24T10:26:59.669Z,6.23
2018-07-24T10:29:28.558Z,6.47
2018-07-24T10:31:57.151Z,5.83
2018-07-24T10:34:25.749Z,6.73
2018-07-24T10:36:54.352Z,5.67
2018-07-24T10:39:22.968Z,6.57
2018-07-24T10:41:51.543Z,7.40
2018-07-24T10:44:20.137Z,5.10
2018-07-24T10:46:48.697Z,5.80
2018-07-24T10:49:17.326Z,5.40
2018-07-24T10:51:46.160Z,5.17
2018-07-24T10:54:14.720Z,5.70
2018-07-24T10:56:43.364Z,5.90
2018-07-24T10:59:11.964Z,6.17
2018-07-24T11:01:40.602Z,5.30
2018-07-24T11:04:09.170Z,5.10
2018-07-24T11:06:37.895Z,5.47
2018-07-24T11:09:09.017Z,4.93
2018-07-24T11:11:37.722Z,4.73
2018-07-24T11:14:06.447Z,5.60
2018-07-24T11:16:35.065Z,4.87
2018-07-24T11:19:03.740Z,5.03
2018-07-24T11:21:32.423Z,5.03
2018-07-24T11:24:01.094Z,4.30
2018-07-24T11:26:29.705Z,4.67
2018-07-24T11:28:58.287Z,5.10
2018-07-24T11:31:26.949Z,5.53
2018-07-24T11:33:55.607Z,6.97
2018-07-24T11:36:24.438Z,4.70
2018-07-24T11:38:53.033Z,4.30
2018-07-24T11:41:21.640Z,4.33
2018-07-24T11:43:50.179Z,5.37
2018-07-24T11:46:18.819Z,4.17
2018-07-24T11:48:47.457Z,4.77
2018-07-24T11:51:16.069Z,4.13
2018-07-24T11:53:44.607Z,3.80
2018-07-24T11:56:13.204Z,4.00
2018-07-24T11:58:41.892Z,4.23
2018-07-24T12:01:10.473Z,4.70
2018-07-24T12:03:39.154Z,4.80
2018-07-24T12:06:07.721Z,5.10
2018-07-24T12:08:36.277Z,5.00
2018-07-24T12:11:06.514Z,5.87
2018-07-24T12:13:38.370Z,5.40
2018-07-24T12:16:07.012Z,5.47
2018-07-24T12:18:36.387Z,5.23
2018-07-24T12:21:05.041Z,5.53
2018-07-24T12:23:33.617Z,5.40
2018-07-24T12:26:02.159Z,6.03
2018-07-24T12:28:30.753Z,5.73
2018-07-24T12:30:59.343Z,6.07
2018-07-24T12:33:28.027Z,4.77
2018-07-24T12:35:56.655Z,6.17
2018-07-24T12:38:25.240Z,6.13
2018-07-24T12:40:53.841Z,5.30
2018-07-24T12:43:22.438Z,5.70
2018-07-24T12:45:51.032Z,5.43
2018-07-24T12:48:19.631Z,5.03
2018-07-24T12:50:48.151Z,5.93
2018-07-24T12:53:16.708Z,6.53
2018-07-24T12:55:45.441Z,5.90
2018-07-24T12:58:14.025Z,5.30
2018-07-24T13:00:42.578Z,5.77
2018-07-24T13:03:11.231Z,5.93
2018-07-24T13:05:39.782Z,6.30
2018-07-24T13:08:08.360Z,5.87
2018-07-24T13:10:37.004Z,7.40
2018-07-24T13:13:05.632Z,6.67
2018-07-24T13:15:34.415Z,6.30
2018-07-24T13:18:03.136Z,6.17
2018-07-24T13:20:31.820Z,6.00
2018-07-24T13:23:00.432Z,6.10
2018-07-24T13:25:29.505Z,5.60
2018-07-24T13:27:58.108Z,5.10
2018-07-24T13:30:26.695Z,5.37
2018-07-24T13:32:55.307Z,5.50
2018-07-24T13:35:24.045Z,4.50
2018-07-24T13:37:52.591Z,5.43
2018-07-24T13:40:21.491Z,5.57
2018-07-24T13:42:50.084Z,5.27
2018-07-24T13:45:18.622Z,4.93
2018-07-24T13:47:47.156Z,4.60
2018-07-24T13:50:15.836Z,4.70
2018-07-24T13:52:44.376Z,4.30
2018-07-24T13:55:13.121Z,4.63
2018-07-24T13:57:41.807Z,4.57
2018-07-24T14:00:10.398Z,4.40
2018-07-24T14:02:39.083Z,4.97
2018-07-24T14:05:07.900Z,4.07
2018-07-24T14:07:37.257Z,4.87
2018-07-24T14:10:07.016Z,5.10
2018-07-24T14:12:35.663Z,5.33
2018-07-24T14:15:04.315Z,4.10
2018-07-24T14:17:32.876Z,3.90
2018-07-24T14:20:01.512Z,4.27
2018-07-24T14:22:30.071Z,4.50
2018-07-24T14:24:58.651Z,4.80
2018-07-24T14:27:27.220Z,5.10
2018-07-24T14:29:55.772Z,5.87
2018-07-24T14:32:24.507Z,6.20
2018-07-24T14:34:53.108Z,6.63
2018-07-24T14:37:21.689Z,6.23
2018-07-24T14:39:50.231Z,6.50
2018-07-24T14:42:18.816Z,6.07
2018-07-24T14:44:47.351Z,5.90
2018-07-24T14:47:16.333Z,5.60
2018-07-24T14:49:44.936Z,5.80
2018-07-24T14:52:13.487Z,5.90
2018-07-24T14:54:42.421Z,5.63
2018-07-24T14:57:11.229Z,6.23
2018-07-24T14:59:39.869Z,5.60
2018-07-24T15:02:08.488Z,6.33
2018-07-24T15:04:37.233Z,6.20
2018-07-24T15:07:05.744Z,6.83
2018-07-24T15:09:34.381Z,7.70
2018-07-24T15:12:02.954Z,7.50
2018-07-24T15:14:31.532Z,7.20
2018-07-24T15:17:00.131Z,7.17
2018-07-24T15:19:28.712Z,8.40
2018-07-24T15:21:57.301Z,7.50
2018-07-24T15:24:25.850Z,7.23
2018-07-24T15:26:54.411Z,5.43
2018-07-24T15:29:23.109Z,5.37
2018-07-24T15:31:51.722Z,6.10
2018-07-24T15:34:20.791Z,6.07
2018-07-24T15:36:49.301Z,5.70
2018-07-24T15:39:18.165Z,6.30
2018-07-24T15:41:46.791Z,6.33
2018-07-24T15:44:15.332Z,6.97
2018-07-24T15:46:44.022Z,6.60
2018-07-24T15:49:12.673Z,7.47
2018-07-24T15:51:41.318Z,5.77
2018-07-24T15:54:09.883Z,5.43
2018-07-24T15:56:38.437Z,6.67
2018-07-24T15:59:07.109Z,7.00
2018-07-24T16:01:35.708Z,7.00
2018-07-24T16:04:04.355Z,6.73
2018-07-24T16:06:32.946Z,7.63
2018-07-24T16:09:01.499Z,8.20
2018-07-24T16:11:31.307Z,8.27
2018-07-24T16:13:59.928Z,8.40
2018-07-24T16:16:28.579Z,7.07
2018-07-24T16:18:57.252Z,9.70
2018-07-24T16:21:25.838Z,8.80
2018-07-24T16:23:54.463Z,7.83
2018-07-24T16:26:23.078Z,8.10
2018-07-24T16:28:51.691Z,7.00
2018-07-24T16:31:20.442Z,6.33
2018-07-24T16:33:48.989Z,8.07
2018-07-24T16:36:17.563Z,6.30
2018-07-24T16:38:46.172Z,5.93
2018-07-24T16:41:14.880Z,6.47
2018-07-24T16:43:43.460Z,5.70
2018-07-24T16:46:12.075Z,5.30
2018-07-24T16:48:40.659Z,5.63
2018-07-24T16:51:09.253Z,4.93
2018-07-24T16:53:37.890Z,5.90
2018-07-24T16:56:06.699Z,5.80
2018-07-24T16:58:35.356Z,5.13
2018-07-24T17:01:03.952Z,6.23
2018-07-24T17:03:32.544Z,5.30
2018-07-24T17:06:01.160Z,5.80
2018-07-24T17:08:29.749Z,5.00
2018-07-24T17:10:58.341Z,4.57
2018-07-24T17:13:26.985Z,5.03
2018-07-24T17:15:55.557Z,5.57
2018-07-24T17:18:24.106Z,5.33
2018-07-24T17:20:52.896Z,5.77
2018-07-24T17:23:21.480Z,5.70
2018-07-24T17:25:50.347Z,5.80
2018-07-24T17:28:19.072Z,5.33
2018-07-24T17:30:47.624Z,5.87
2018-07-24T17:33:16.226Z,5.70
2018-07-24T17:35:44.915Z,6.23
2018-07-24T17:38:13.455Z,5.57
2018-07-24T17:40:42.079Z,5.83
2018-07-24T17:43:10.637Z,6.40
2018-07-24T17:45:39.355Z,5.87
2018-07-24T17:48:08.422Z,5.90
2018-07-24T17:50:37.117Z,6.83
2018-07-24T17:53:05.731Z,5.80
2018-07-24T17:55:34.367Z,6.60
2018-07-24T17:58:02.934Z,5.60
2018-07-24T18:00:31.628Z,6.00
2018-07-24T18:03:00.177Z,4.90
2018-07-24T18:05:28.824Z,5.77
2018-07-24T18:07:57.425Z,6.07
2018-07-24T18:10:26.063Z,5.20
2018-07-24T18:12:54.679Z,5.10
2018-07-24T18:15:23.359Z,5.40
2018-07-24T18:17:51.896Z,5.40
2018-07-24T18:20:20.517Z,5.60
2018-07-24T18:22:49.152Z,5.37
2018-07-24T18:25:17.720Z,6.27
2018-07-24T18:27:46.317Z,7.27
2018-07-24T18:30:14.880Z,6.33
2018-07-24T18:32:43.406Z,6.00
2018-07-24T18:35:12.489Z,5.87
2018-07-24T18:37:41.126Z,5.00
2018-07-24T18:40:09.721Z,6.63
2018-07-24T18:42:38.353Z,6.40
2018-07-24T18:45:06.985Z,6.70
2018-07-24T18:47:35.565Z,6.03
2018-07-24T18:50:04.232Z,5.70
2018-07-24T18:52:32.791Z,5.77
2018-07-24T18:55:01.416Z,6.47
2018-07-24T18:57:30.087Z,5.60
2018-07-24T18:59:58.775Z,5.40
2018-07-24T19:02:27.396Z,5.87
2018-07-24T19:04:55.964Z,6.03
2018-07-24T19:07:24.643Z,5.60
2018-07-24T19:09:53.247Z,5.90
2018-07-24T19:12:21.812Z,5.30
2018-07-24T19:14:50.388Z,5.30
2018-07-24T19:17:19.115Z,6.47
2018-07-24T19:19:47.616Z,5.77
2018-07-24T19:22:16.232Z,6.70
2018-07-24T19:24:44.828Z,5.90
2018-07-24T19:27:13.526Z,5.90
2018-07-24T19:29:42.159Z,6.60
2018-07-24T19:32:10.883Z,6.33
2018-07-24T19:34:39.511Z,7.53
2018-07-24T19:37:08.131Z,5.37
2018-07-24T19:39:36.876Z,6.00
2018-07-24T19:42:05.532Z,6.20
2018-07-24T19:44:34.237Z,6.20
2018-07-24T19:47:02.831Z,6.20
2018-07-24T19:49:31.583Z,6.37
2018-07-24T19:52:00.065Z,6.47
2018-07-24T19:54:28.597Z,5.90
2018-07-24T19:56:57.226Z,6.10
2018-07-24T19:59:25.812Z,5.63
2018-07-24T20:01:54.366Z,5.87
2018-07-24T20:04:23.264Z,5.40
2018-07-24T20:06:52.647Z,4.97
2018-07-24T20:09:21.224Z,5.47
2018-07-24T20:11:49.769Z,5.93
2018-07-24T20:14:18.392Z,6.13
2018-07-24T20:16:47.020Z,4.90
2018-07-24T20:19:15.687Z,5.80
2018-07-24T20:21:44.269Z,5.87
2018-07-24T20:24:12.876Z,6.20
2018-07-24T20:26:41.582Z,6.80
2018-07-24T20:29:10.339Z,5.40
2018-07-24T20:31:39.010Z,5.30
2018-07-24T20:34:07.711Z,6.07
2018-07-24T20:36:36.323Z,5.50
2018-07-24T20:39:08.928Z,5.90
2018-07-24T20:41:37.621Z,6.60
2018-07-24T20:44:06.176Z,5.20
2018-07-24T20:46:34.729Z,6.00
2018-07-24T20:49:03.672Z,6.20
2018-07-24T20:51:33.155Z,5.53
2018-07-24T20:54:01.882Z,5.47
2018-07-24T20:56:30.508Z,5.60
2018-07-24T20:58:59.200Z,5.90
2018-07-24T21:01:27.787Z,5.57
2018-07-24T21:03:56.808Z,5.17
2018-07-24T21:06:25.351Z,6.47
2018-07-24T21:08:53.939Z,5.50
2018-07-24T21:11:22.824Z,5.40
2018-07-24T21:13:51.392Z,5.37
2018-07-24T21:16:20.148Z,5.63
2018-07-24T21:18:49.084Z,5.10
2018-07-24T21:21:18.523Z,5.90
2018-07-24T21:23:47.098Z,7.23
2018-07-24T21:26:15.800Z,6.30
2018-07-24T21:28:44.378Z,6.37
2018-07-24T21:31:13.266Z,6.50
2018-07-24T21:33:41.836Z,6.53
2018-07-24T21:36:10.530Z,7.33
2018-07-24T21:38:39.349Z,6.60
2018-07-24T21:41:08.293Z,6.20
2018-07-24T21:43:36.892Z,6.93
2018-07-24T21:46:05.425Z,6.53
2018-07-24T21:48:34.114Z,5.93
2018-07-24T21:51:02.816Z,4.90
2018-07-24T21:53:31.400Z,6.50
2018-07-24T21:55:59.991Z,6.47
2018-07-24T21:58:28.595Z,5.33
2018-07-24T22:01:02.485Z,5.40
2018-07-24T22:03:31.127Z,5.83
2018-07-24T22:06:00.486Z,5.70
2018-07-24T22:08:30.299Z,5.33
2018-07-24T22:10:58.909Z,6.13
2018-07-24T22:13:27.576Z,6.10
2018-07-24T22:15:56.290Z,5.00
2018-07-24T22:18:24.921Z,5.63
2018-07-24T22:20:53.496Z,5.40
2018-07-24T22:23:22.212Z,5.77
2018-07-24T22:25:50.756Z,4.87
2018-07-24T22:28:19.365Z,5.10
2018-07-24T22:30:48.006Z,5.70
2018-07-24T22:33:17.967Z,5.97
2018-07-24T22:35:46.561Z,4.97
2018-07-24T22:38:15.131Z,6.07
2018-07-24T22:40:43.815Z,6.10
2018-07-24T22:43:13.288Z,6.00
2018-07-24T22:45:42.068Z,5.33
2018-07-24T22:48:10.644Z,5.73
2018-07-24T22:50:39.231Z,5.87
2018-07-24T22:53:07.853Z,6.97
2018-07-24T22:55:36.401Z,6.47
2018-07-24T22:58:05.019Z,6.13
2018-07-24T23:00:33.691Z,6.60
2018-07-24T23:03:02.288Z,4.60
2018-07-24T23:05:31.152Z,7.27
2018-07-24T23:07:59.732Z,6.00
2018-07-24T23:10:33.493Z,5.93
2018-07-24T23:13:03.902Z,7.60
2018-07-24T23:15:32.743Z,5.90
2018-07-24T23:18:01.255Z,6.90
2018-07-24T23:20:29.854Z,6.90
2018-07-24T23:22:58.420Z,6.37
2018-07-24T23:25:27.026Z,5.20
2018-07-24T23:27:55.569Z,5.43
2018-07-24T23:30:24.347Z,7.10
2018-07-24T23:32:52.911Z,5.70
2018-07-24T23:35:21.464Z,6.07
2018-07-24T23:37:50.284Z,5.97
2018-07-24T23:40:18.852Z,6.17
2018-07-24T23:42:47.409Z,5.10
2018-07-24T23:45:15.944Z,5.07
2018-07-24T23:47:44.577Z,5.80
2018-07-24T23:50:13.140Z,5.67
2018-07-24T23:52:41.686Z,5.80
2018-07-24T23:55:10.371Z,5.60
2018-07-24T23:57:38.901Z,4.73
